Time;durP1;ratioP1;P1;durP2;ratioP2;P2;SDS_P1;SDS_P2;PMS_P1;PMS_P2;Temp;Humidity;BMP_temperature;BMP_pressure;BME280_temperature;BME280_humidity;BME280_pressure;Samples;Min_cycle;Max_cycle;Signal;HPM_P1;HPM_P2
2021/07/20 00:04:36;;;;;;;0.70;0.50;;;;;;;;;;10354167;28;20053;-27
2021/07/20 00:09:39;;;;;;;0.60;0.50;;;;;;;;;;10351175;28;20050;-26
2021/07/20 00:14:42;;;;;;;0.70;0.50;;;;;;;;;;10350898;28;20057;-26
2021/07/20 00:19:46;;;;;;;1.20;0.52;;;;;;;;;;10358391;28;20881;-28
2021/07/20 00:24:49;;;;;;;0.80;0.50;;;;;;;;;;10355623;28;20050;-26
2021/07/20 00:29:51;;;;;;;0.50;0.40;;;;;;;;;;10355425;28;20057;-27
2021/07/20 00:34:56;;;;;;;0.60;0.60;;;;;;;;;;10358586;28;20057;-26
2021/07/20 00:39:58;;;;;;;1.02;0.50;;;;;;;;;;10360932;28;20045;-26
2021/07/20 00:45:02;;;;;;;0.30;0.30;;;;;;;;;;10359993;28;20145;-27
2021/07/20 00:50:10;;;;;;;0.40;0.40;;;;;;;;;;10357778;28;20437;-26
2021/07/20 00:55:15;;;;;;;0.65;0.60;;;;;;;;;;10362115;28;20060;-26
2021/07/20 01:00:20;;;;;;;0.82;0.60;;;;;;;;;;10356708;28;20470;-26
2021/07/20 01:05:28;;;;;;;0.45;0.40;;;;;;;;;;10354862;28;20053;-26
2021/07/20 01:10:33;;;;;;;0.68;0.40;;;;;;;;;;10365067;28;20068;-27
2021/07/20 01:15:39;;;;;;;0.43;0.43;;;;;;;;;;10362492;28;20060;-28
2021/07/20 01:20:43;;;;;;;0.50;0.50;;;;;;;;;;10360721;28;20038;-26
2021/07/20 01:25:51;;;;;;;1.05;0.60;;;;;;;;;;10361348;28;20064;-27
2021/07/20 01:30:56;;;;;;;0.43;0.43;;;;;;;;;;10366236;28;20125;-26
2021/07/20 01:36:01;;;;;;;1.30;0.70;;;;;;;;;;10361144;28;20050;-27
2021/07/20 01:41:07;;;;;;;0.50;0.50;;;;;;;;;;10348737;28;20781;-26
2021/07/20 01:46:10;;;;;;;0.68;0.60;;;;;;;;;;10355074;28;20045;-26
2021/07/20 01:51:13;;;;;;;1.38;0.70;;;;;;;;;;10348138;28;20104;-26
2021/07/20 01:56:21;;;;;;;0.57;0.50;;;;;;;;;;10350069;28;20050;-26
2021/07/20 02:01:27;;;;;;;0.77;0.50;;;;;;;;;;10353017;28;20053;-26
2021/07/20 02:11:56;;;;;;;0.52;0.52;;;;;;;;;;10356944;28;20057;-26
2021/07/20 02:17:22;;;;;;;1.58;0.60;;;;;;;;;;10361473;28;20119;-27
2021/07/20 02:22:27;;;;;;;0.82;0.60;;;;;;;;;;10363272;28;20057;-26
2021/07/20 02:27:34;;;;;;;1.30;0.50;;;;;;;;;;10364797;28;20482;-26
2021/07/20 02:32:38;;;;;;;0.73;0.68;;;;;;;;;;10361537;28;20186;-26
2021/07/20 02:37:50;;;;;;;0.70;0.70;;;;;;;;;;10363297;28;20905;-26
2021/07/20 02:42:56;;;;;;;0.63;0.63;;;;;;;;;;10366116;28;20048;-26
2021/07/20 02:47:59;;;;;;;0.75;0.57;;;;;;;;;;10364661;28;20168;-27
2021/07/20 02:53:05;;;;;;;0.50;0.50;;;;;;;;;;10368257;28;20052;-26
2021/07/20 02:58:19;;;;;;;0.57;0.57;;;;;;;;;;10368671;28;20163;-26
2021/07/20 03:03:24;;;;;;;0.60;0.60;;;;;;;;;;10365576;28;20060;-26
2021/07/20 03:08:33;;;;;;;0.93;0.73;;;;;;;;;;10368911;28;20062;-26
2021/07/20 03:13:51;;;;;;;0.70;0.60;;;;;;;;;;10368768;28;20886;-26
2021/07/20 03:18:55;;;;;;;1.30;0.70;;;;;;;;;;10363359;28;20054;-26
2021/07/20 03:23:59;;;;;;;0.75;0.70;;;;;;;;;;10352667;28;20116;-26
2021/07/20 03:29:06;;;;;;;1.00;0.50;;;;;;;;;;10344683;28;20148;-27
2021/07/20 03:34:09;;;;;;;0.68;0.63;;;;;;;;;;10354862;28;20165;-27
2021/07/20 03:39:18;;;;;;;0.88;0.60;;;;;;;;;;10351259;28;20041;-26
2021/07/20 03:44:23;;;;;;;0.85;0.70;;;;;;;;;;10357753;28;20156;-26
2021/07/20 03:49:27;;;;;;;0.63;0.63;;;;;;;;;;10359608;28;20077;-26
2021/07/20 03:54:33;;;;;;;0.63;0.50;;;;;;;;;;10354984;28;20057;-28
2021/07/20 03:59:40;;;;;;;1.90;0.50;;;;;;;;;;10351485;28;20732;-27
2021/07/20 04:05:01;;;;;;;0.38;0.38;;;;;;;;;;10349877;28;20659;-27
2021/07/20 04:10:08;;;;;;;0.50;0.50;;;;;;;;;;10357408;28;20065;-26
2021/07/20 04:15:19;;;;;;;0.68;0.52;;;;;;;;;;10348915;28;20562;-26
2021/07/20 04:20:35;;;;;;;0.77;0.68;;;;;;;;;;10353008;28;20045;-26
2021/07/20 04:25:41;;;;;;;0.60;0.60;;;;;;;;;;10357394;28;20139;-25
2021/07/20 04:30:46;;;;;;;0.55;0.55;;;;;;;;;;10354323;28;20062;-24
2021/07/20 04:35:49;;;;;;;0.57;0.50;;;;;;;;;;10350229;28;20551;-25
2021/07/20 04:40:52;;;;;;;0.57;0.57;;;;;;;;;;10354683;28;20176;-26
2021/07/20 04:45:58;;;;;;;0.75;0.68;;;;;;;;;;10350527;28;20103;-24
2021/07/20 04:51:04;;;;;;;0.50;0.50;;;;;;;;;;10355828;28;20057;-25
2021/07/20 04:56:12;;;;;;;0.70;0.60;;;;;;;;;;10351333;28;20046;-25
2021/07/20 05:01:24;;;;;;;0.80;0.70;;;;;;;;;;10339937;28;20042;-25
2021/07/20 05:06:30;;;;;;;0.80;0.45;;;;;;;;;;10341065;28;20050;-25
2021/07/20 05:11:35;;;;;;;0.47;0.47;;;;;;;;;;10337329;28;20061;-25
2021/07/20 05:16:41;;;;;;;0.73;0.40;;;;;;;;;;10343686;28;20132;-25
2021/07/20 05:21:45;;;;;;;0.80;0.60;;;;;;;;;;10341579;28;20077;-24
2021/07/20 05:26:51;;;;;;;0.70;0.57;;;;;;;;;;10344788;28;20890;-25
2021/07/20 05:31:56;;;;;;;0.50;0.50;;;;;;;;;;10342972;28;20132;-24
2021/07/20 05:37:00;;;;;;;1.00;0.50;;;;;;;;;;10343551;28;20135;-25
2021/07/20 05:42:13;;;;;;;0.77;0.70;;;;;;;;;;10337595;28;20045;-24
2021/07/20 05:47:18;;;;;;;0.65;0.60;;;;;;;;;;10347584;28;20065;-25
2021/07/20 05:52:40;;;;;;;0.35;0.35;;;;;;;;;;10348480;28;20050;-26
2021/07/20 05:57:46;;;;;;;0.50;0.50;;;;;;;;;;10345573;28;20056;-25
2021/07/20 06:03:02;;;;;;;0.75;0.40;;;;;;;;;;10347146;28;20046;-25
2021/07/20 06:08:05;;;;;;;0.38;0.38;;;;;;;;;;10351945;28;20128;-25
2021/07/20 06:13:08;;;;;;;0.30;0.30;;;;;;;;;;10351453;28;20053;-25
2021/07/20 06:18:12;;;;;;;0.28;0.28;;;;;;;;;;10348742;28;20058;-25
2021/07/20 06:23:15;;;;;;;0.40;0.40;;;;;;;;;;10348242;28;20042;-25
2021/07/20 06:28:19;;;;;;;1.17;0.50;;;;;;;;;;10353114;28;20705;-24
2021/07/20 06:33:23;;;;;;;0.50;0.40;;;;;;;;;;10349013;28;20057;-25
2021/07/20 06:38:26;;;;;;;0.65;0.47;;;;;;;;;;10353160;28;20372;-25
2021/07/20 06:43:31;;;;;;;0.30;0.30;;;;;;;;;;10347730;28;20034;-25
2021/07/20 06:48:37;;;;;;;0.30;0.30;;;;;;;;;;10357842;28;20050;-25
2021/07/20 06:53:40;;;;;;;0.90;0.30;;;;;;;;;;10359796;28;20041;-25
2021/07/20 06:58:43;;;;;;;0.45;0.40;;;;;;;;;;10353515;28;20053;-25
2021/07/20 07:03:52;;;;;;;0.63;0.40;;;;;;;;;;10343290;28;20696;-24
2021/07/20 07:08:55;;;;;;;0.40;0.40;;;;;;;;;;10351393;28;20384;-25
2021/07/20 07:13:58;;;;;;;0.20;0.20;;;;;;;;;;10347195;28;20050;-25
2021/07/20 07:19:03;;;;;;;0.30;0.30;;;;;;;;;;10348883;28;20064;-25
2021/07/20 07:24:06;;;;;;;0.70;0.35;;;;;;;;;;10345668;28;20050;-25
2021/07/20 07:29:10;;;;;;;1.10;0.35;;;;;;;;;;10348182;28;20132;-25
2021/07/20 07:34:14;;;;;;;0.40;0.30;;;;;;;;;;10347712;28;20046;-26
2021/07/20 07:39:17;;;;;;;0.57;0.30;;;;;;;;;;10349992;28;20046;-26
2021/07/20 07:44:20;;;;;;;0.30;0.30;;;;;;;;;;10352085;28;20836;-25
2021/07/20 07:49:25;;;;;;;0.68;0.40;;;;;;;;;;10352533;28;20042;-25
2021/07/20 07:54:27;;;;;;;0.47;0.32;;;;;;;;;;10352194;28;20550;-24
2021/07/20 07:59:31;;;;;;;0.40;0.30;;;;;;;;;;10351500;28;20041;-25
2021/07/20 08:04:35;;;;;;;0.20;0.20;;;;;;;;;;10346692;28;20038;-25
2021/07/20 08:09:39;;;;;;;0.32;0.32;;;;;;;;;;10353795;28;20049;-26
2021/07/20 08:14:43;;;;;;;0.30;0.30;;;;;;;;;;10351792;28;20042;-25
2021/07/20 08:19:47;;;;;;;1.13;0.50;;;;;;;;;;10355841;28;20096;-25
2021/07/20 08:24:55;;;;;;;0.50;0.40;;;;;;;;;;10351749;28;20042;-25
2021/07/20 08:29:58;;;;;;;0.45;0.30;;;;;;;;;;10355025;28;20499;-25
2021/07/20 08:35:06;;;;;;;0.30;0.30;;;;;;;;;;10350058;28;20041;-25
2021/07/20 08:40:33;;;;;;;0.85;0.30;;;;;;;;;;10352671;28;20046;-24
2021/07/20 08:45:38;;;;;;;0.57;0.30;;;;;;;;;;10349664;28;20165;-25
2021/07/20 08:50:45;;;;;;;0.70;0.43;;;;;;;;;;10346658;28;20527;-25
2021/07/20 08:55:50;;;;;;;0.47;0.25;;;;;;;;;;10354510;28;20050;-25
2021/07/20 09:00:54;;;;;;;0.40;0.30;;;;;;;;;;10360181;28;20162;-25
2021/07/20 09:06:04;;;;;;;0.40;0.40;;;;;;;;;;10338578;28;20115;-25
2021/07/20 09:11:10;;;;;;;0.30;0.30;;;;;;;;;;10337559;28;20708;-25
2021/07/20 09:16:19;;;;;;;0.50;0.30;;;;;;;;;;10339033;28;20038;-24
2021/07/20 09:21:24;;;;;;;0.50;0.40;;;;;;;;;;10339152;28;20630;-25
2021/07/20 09:26:30;;;;;;;0.30;0.30;;;;;;;;;;10342332;28;20046;-26
2021/07/20 09:31:36;;;;;;;0.85;0.35;;;;;;;;;;10340367;28;20089;-25
2021/07/20 09:36:44;;;;;;;0.40;0.40;;;;;;;;;;10363040;28;20545;-27
2021/07/20 09:41:49;;;;;;;0.50;0.40;;;;;;;;;;10344226;28;20506;-25
2021/07/20 09:47:03;;;;;;;0.75;0.40;;;;;;;;;;10342978;28;20396;-25
2021/07/20 09:52:20;;;;;;;0.40;0.40;;;;;;;;;;10347236;28;20037;-28
2021/07/20 09:57:29;;;;;;;0.50;0.30;;;;;;;;;;10346812;28;20045;-29
2021/07/20 10:02:36;;;;;;;0.30;0.30;;;;;;;;;;10346608;28;20645;-29
2021/07/20 10:07:41;;;;;;;0.60;0.40;;;;;;;;;;10347417;28;20050;-29
2021/07/20 10:12:49;;;;;;;0.30;0.28;;;;;;;;;;10349408;28;20045;-27
2021/07/20 10:17:57;;;;;;;0.40;0.30;;;;;;;;;;10350012;28;20050;-28
2021/07/20 10:23:03;;;;;;;0.40;0.30;;;;;;;;;;10353835;28;20058;-28
2021/07/20 10:28:09;;;;;;;0.35;0.30;;;;;;;;;;10364204;28;20095;-28
2021/07/20 10:33:17;;;;;;;0.30;0.30;;;;;;;;;;10353880;28;20617;-29
2021/07/20 10:38:25;;;;;;;0.50;0.22;;;;;;;;;;10362171;28;20049;-28
2021/07/20 10:43:31;;;;;;;0.47;0.40;;;;;;;;;;10359345;28;20084;-29
2021/07/20 10:48:38;;;;;;;0.40;0.40;;;;;;;;;;10365018;28;20041;-28
2021/07/20 10:53:46;;;;;;;0.73;0.40;;;;;;;;;;10348442;28;20046;-27
2021/07/20 10:58:54;;;;;;;0.30;0.30;;;;;;;;;;10362862;28;20061;-27
2021/07/20 11:04:02;;;;;;;0.50;0.30;;;;;;;;;;10352338;28;20049;-28
2021/07/20 11:09:07;;;;;;;0.40;0.30;;;;;;;;;;10367854;28;20042;-27
2021/07/20 11:14:11;;;;;;;0.40;0.40;;;;;;;;;;10357764;28;20124;-27
2021/07/20 11:19:14;;;;;;;0.60;0.40;;;;;;;;;;10359187;28;20049;-29
2021/07/20 11:24:20;;;;;;;0.40;0.30;;;;;;;;;;10355134;28;20046;-27
2021/07/20 11:29:23;;;;;;;0.45;0.40;;;;;;;;;;10348572;28;20061;-27
2021/07/20 11:34:28;;;;;;;0.77;0.30;;;;;;;;;;10348086;28;20045;-27
2021/07/20 11:39:38;;;;;;;0.40;0.40;;;;;;;;;;10354064;28;20057;-28
2021/07/20 11:44:43;;;;;;;0.30;0.30;;;;;;;;;;10358745;28;20042;-27
2021/07/20 11:49:58;;;;;;;0.30;0.30;;;;;;;;;;10362020;28;20054;-27
2021/07/20 11:55:06;;;;;;;1.00;0.40;;;;;;;;;;10357449;28;20046;-26
2021/07/20 12:00:20;;;;;;;0.35;0.35;;;;;;;;;;10358382;28;20551;-28
2021/07/20 12:05:28;;;;;;;0.30;0.20;;;;;;;;;;10359920;28;20109;-28
2021/07/20 12:10:36;;;;;;;0.22;0.22;;;;;;;;;;10364889;28;20056;-27
2021/07/20 12:15:41;;;;;;;0.45;0.25;;;;;;;;;;10360508;28;20045;-35
2021/07/20 12:20:44;;;;;;;0.45;0.40;;;;;;;;;;10366076;28;20049;-29
2021/07/20 12:25:48;;;;;;;0.30;0.30;;;;;;;;;;10370004;28;20044;-28
2021/07/20 12:30:58;;;;;;;0.30;0.30;;;;;;;;;;10367523;28;20069;-28
2021/07/20 12:36:01;;;;;;;0.60;0.47;;;;;;;;;;10364754;28;20034;-28
2021/07/20 12:41:09;;;;;;;0.68;0.20;;;;;;;;;;10363047;28;20038;-28
2021/07/20 12:46:13;;;;;;;0.30;0.22;;;;;;;;;;10367006;28;20041;-28
2021/07/20 12:51:17;;;;;;;0.30;0.30;;;;;;;;;;10373226;28;20045;-29
2021/07/20 12:56:22;;;;;;;0.60;0.30;;;;;;;;;;10369548;28;20601;-28
2021/07/20 13:01:25;;;;;;;0.47;0.25;;;;;;;;;;10371937;28;20392;-28
2021/07/20 13:06:34;;;;;;;0.30;0.30;;;;;;;;;;10372541;28;20056;-29
2021/07/20 13:11:39;;;;;;;0.60;0.22;;;;;;;;;;10365560;28;20037;-28
2021/07/20 13:16:42;;;;;;;1.05;0.28;;;;;;;;;;10365265;28;20045;-28
2021/07/20 13:21:45;;;;;;;0.28;0.20;;;;;;;;;;10369240;28;20053;-28
2021/07/20 13:26:52;;;;;;;0.35;0.20;;;;;;;;;;10372354;28;20672;-28
2021/07/20 13:31:54;;;;;;;0.30;0.28;;;;;;;;;;10365871;28;20065;-28
2021/07/20 13:36:57;;;;;;;0.20;0.20;;;;;;;;;;10375358;28;20595;-29
2021/07/20 13:42:01;;;;;;;0.30;0.30;;;;;;;;;;10373384;28;20475;-28
2021/07/20 13:47:05;;;;;;;0.22;0.22;;;;;;;;;;10361682;28;20038;-27
2021/07/20 13:52:08;;;;;;;0.38;0.30;;;;;;;;;;10369643;28;20053;-28
2021/07/20 13:57:13;;;;;;;0.30;0.30;;;;;;;;;;10370171;28;20409;-28
2021/07/20 14:02:16;;;;;;;0.52;0.30;;;;;;;;;;10366123;28;20046;-28
2021/07/20 14:07:22;;;;;;;0.65;0.40;;;;;;;;;;10370849;28;20049;-28
2021/07/20 14:12:27;;;;;;;0.30;0.30;;;;;;;;;;10368917;28;20060;-28
2021/07/20 14:17:30;;;;;;;0.25;0.20;;;;;;;;;;10370832;28;20499;-28
2021/07/20 14:22:33;;;;;;;0.20;0.20;;;;;;;;;;10365838;28;20072;-29
2021/07/20 14:27:37;;;;;;;0.30;0.30;;;;;;;;;;10369369;28;20565;-28
2021/07/20 14:32:40;;;;;;;0.50;0.30;;;;;;;;;;10364252;28;20065;-28
2021/07/20 14:37:46;;;;;;;0.45;0.30;;;;;;;;;;10371139;28;20046;-28
2021/07/20 14:42:54;;;;;;;0.30;0.30;;;;;;;;;;10365645;28;20042;-28
2021/07/20 14:47:58;;;;;;;0.20;0.20;;;;;;;;;;10371570;28;20483;-28
2021/07/20 14:53:28;;;;;;;0.30;0.30;;;;;;;;;;10356490;28;20064;-28
2021/07/20 14:58:33;;;;;;;0.47;0.30;;;;;;;;;;10349245;28;20045;-28
2021/07/20 15:03:38;;;;;;;0.35;0.20;;;;;;;;;;10365185;28;20050;-28
2021/07/20 15:08:42;;;;;;;0.43;0.20;;;;;;;;;;10363544;28;20053;-28
2021/07/20 15:13:48;;;;;;;0.30;0.25;;;;;;;;;;10372530;28;20038;-28
2021/07/20 15:18:54;;;;;;;0.38;0.28;;;;;;;;;;10375988;28;20476;-28
2021/07/20 15:23:57;;;;;;;0.30;0.30;;;;;;;;;;10375018;28;20037;-28
2021/07/20 15:29:01;;;;;;;0.20;0.20;;;;;;;;;;10372038;28;20057;-27
2021/07/20 15:34:04;;;;;;;0.30;0.30;;;;;;;;;;10372258;28;20041;-28
2021/07/20 15:39:09;;;;;;;0.20;0.20;;;;;;;;;;10373239;28;20506;-28
2021/07/20 15:44:13;;;;;;;0.30;0.30;;;;;;;;;;10377729;28;20044;-28
2021/07/20 15:49:15;;;;;;;0.28;0.20;;;;;;;;;;10375963;28;20064;-27
2021/07/20 15:54:19;;;;;;;0.10;0.10;;;;;;;;;;10373552;28;20049;-29
2021/07/20 15:59:23;;;;;;;0.10;0.10;;;;;;;;;;10377561;28;20136;-28
2021/07/20 16:04:26;;;;;;;0.25;0.20;;;;;;;;;;10367721;28;20037;-28
2021/07/20 16:09:29;;;;;;;0.20;0.20;;;;;;;;;;10375025;28;20042;-28
2021/07/20 16:14:33;;;;;;;0.20;0.20;;;;;;;;;;10370702;28;20049;-30
2021/07/20 16:19:36;;;;;;;0.25;0.20;;;;;;;;;;10372336;28;20037;-28
2021/07/20 16:24:40;;;;;;;0.20;0.20;;;;;;;;;;10371199;28;20034;-28
2021/07/20 16:29:44;;;;;;;0.30;0.20;;;;;;;;;;10376704;28;20826;-30
2021/07/20 16:34:46;;;;;;;0.40;0.20;;;;;;;;;;10369696;28;20388;-28
2021/07/20 16:39:50;;;;;;;0.65;0.30;;;;;;;;;;10368577;28;20045;-29
2021/07/20 16:44:58;;;;;;;0.80;0.30;;;;;;;;;;10367902;28;20747;-28
2021/07/20 16:50:00;;;;;;;0.20;0.20;;;;;;;;;;10360435;28;20061;-28
2021/07/20 16:55:04;;;;;;;0.20;0.20;;;;;;;;;;10352726;28;20049;-28
2021/07/20 17:00:08;;;;;;;0.13;0.13;;;;;;;;;;10353816;28;20053;-28
2021/07/20 17:05:13;;;;;;;0.50;0.30;;;;;;;;;;10356326;28;20049;-28
2021/07/20 17:10:16;;;;;;;0.30;0.30;;;;;;;;;;10352735;28;20500;-31
2021/07/20 17:15:21;;;;;;;0.30;0.28;;;;;;;;;;10346182;28;20038;-29
2021/07/20 17:20:24;;;;;;;0.35;0.30;;;;;;;;;;10347869;28;20057;-28
2021/07/20 17:25:27;;;;;;;0.20;0.20;;;;;;;;;;10350813;28;20053;-28
2021/07/20 17:30:31;;;;;;;0.30;0.30;;;;;;;;;;10353418;28;20058;-28
2021/07/20 17:35:33;;;;;;;0.57;0.30;;;;;;;;;;10349796;28;20048;-27
2021/07/20 17:40:36;;;;;;;0.73;0.22;;;;;;;;;;10362782;28;20050;-28
2021/07/20 17:45:40;;;;;;;0.28;0.28;;;;;;;;;;10343623;28;20717;-27
2021/07/20 17:50:45;;;;;;;0.22;0.22;;;;;;;;;;10344966;28;20802;-28
2021/07/20 17:55:52;;;;;;;0.20;0.20;;;;;;;;;;10344202;28;20149;-29
2021/07/20 18:00:58;;;;;;;0.30;0.30;;;;;;;;;;10347861;28;20057;-29
2021/07/20 18:06:01;;;;;;;1.15;0.20;;;;;;;;;;10349821;28;20049;-28
2021/07/20 18:11:06;;;;;;;0.28;0.20;;;;;;;;;;10351600;28;20053;-29
2021/07/20 18:16:11;;;;;;;0.30;0.30;;;;;;;;;;10349756;28;20038;-28
2021/07/20 18:21:14;;;;;;;0.25;0.25;;;;;;;;;;10346347;28;20415;-35
2021/07/20 18:26:16;;;;;;;0.70;0.30;;;;;;;;;;10342778;28;20048;-28
2021/07/20 18:31:21;;;;;;;0.20;0.20;;;;;;;;;;10352103;28;20686;-28
2021/07/20 18:36:24;;;;;;;0.20;0.20;;;;;;;;;;10346178;28;20050;-28
2021/07/20 18:41:27;;;;;;;0.38;0.38;;;;;;;;;;10347818;28;20037;-29
2021/07/20 18:46:31;;;;;;;0.82;0.30;;;;;;;;;;10352849;28;20038;-28
2021/07/20 18:51:34;;;;;;;0.85;0.30;;;;;;;;;;10359198;28;20049;-28
2021/07/20 18:56:36;;;;;;;0.70;0.40;;;;;;;;;;10353111;28;20046;-28
2021/07/20 19:01:40;;;;;;;3.05;0.50;;;;;;;;;;10357304;28;20049;-27
2021/07/20 19:06:43;;;;;;;1.55;0.30;;;;;;;;;;10353200;28;21216;-27
2021/07/20 19:11:46;;;;;;;0.40;0.30;;;;;;;;;;10356991;28;20046;-28
2021/07/20 19:16:50;;;;;;;0.57;0.30;;;;;;;;;;10352711;28;20049;-27
2021/07/20 19:21:54;;;;;;;1.95;0.20;;;;;;;;;;10354665;28;20241;-28
2021/07/20 19:26:57;;;;;;;1.17;0.20;;;;;;;;;;10357647;28;20050;-28
2021/07/20 19:32:01;;;;;;;0.30;0.20;;;;;;;;;;10349921;28;20064;-28
2021/07/20 19:37:04;;;;;;;0.95;0.28;;;;;;;;;;10351263;28;20867;-28
2021/07/20 19:42:07;;;;;;;0.43;0.20;;;;;;;;;;10351545;28;20045;-28
2021/07/20 19:47:12;;;;;;;0.30;0.20;;;;;;;;;;10357984;28;20045;-28
2021/07/20 19:52:15;;;;;;;0.20;0.20;;;;;;;;;;10354832;28;20050;-29
2021/07/20 19:57:19;;;;;;;0.10;0.10;;;;;;;;;;10347741;28;20112;-28
2021/07/20 20:02:23;;;;;;;0.35;0.20;;;;;;;;;;10341896;28;20041;-28
2021/07/20 20:07:26;;;;;;;0.20;0.20;;;;;;;;;;10340327;28;20867;-29
2021/07/20 20:12:29;;;;;;;0.30;0.20;;;;;;;;;;10340692;28;20046;-28
2021/07/20 20:17:33;;;;;;;0.20;0.20;;;;;;;;;;10338191;28;20120;-28
2021/07/20 20:22:36;;;;;;;0.13;0.13;;;;;;;;;;10342578;28;20041;-29
2021/07/20 20:27:39;;;;;;;0.10;0.10;;;;;;;;;;10345242;28;20046;-28
2021/07/20 20:32:43;;;;;;;0.10;0.10;;;;;;;;;;10354305;28;20058;-28
2021/07/20 20:37:46;;;;;;;0.47;0.20;;;;;;;;;;10349090;28;20049;-28
2021/07/20 20:42:49;;;;;;;0.43;0.20;;;;;;;;;;10351597;28;20566;-28
2021/07/20 20:47:53;;;;;;;0.35;0.20;;;;;;;;;;10347361;28;20058;-28
2021/07/20 20:52:56;;;;;;;0.40;0.20;;;;;;;;;;10349033;28;20516;-28
2021/07/20 20:57:58;;;;;;;0.20;0.20;;;;;;;;;;10354810;28;20045;-27
2021/07/20 21:03:02;;;;;;;0.75;0.20;;;;;;;;;;10355629;28;20053;-28
2021/07/20 21:08:05;;;;;;;0.90;0.20;;;;;;;;;;10355612;28;20049;-28
2021/07/20 21:13:08;;;;;;;0.82;0.10;;;;;;;;;;10346520;28;20157;-29
2021/07/20 21:18:12;;;;;;;0.35;0.30;;;;;;;;;;10366895;28;20713;-28
2021/07/20 21:23:15;;;;;;;0.47;0.20;;;;;;;;;;10353708;28;20049;-28
2021/07/20 21:28:17;;;;;;;0.82;0.40;;;;;;;;;;10350973;28;20052;-27
2021/07/20 21:33:21;;;;;;;0.32;0.30;;;;;;;;;;10353142;28;20061;-28
2021/07/20 21:38:24;;;;;;;0.30;0.30;;;;;;;;;;10355323;28;20042;-28
2021/07/20 21:43:27;;;;;;;0.30;0.30;;;;;;;;;;10353693;28;20049;-28
2021/07/20 21:48:31;;;;;;;0.70;0.30;;;;;;;;;;10350716;28;20612;-28
2021/07/20 21:53:34;;;;;;;0.55;0.30;;;;;;;;;;10352867;28;20498;-28
2021/07/20 21:58:37;;;;;;;0.57;0.30;;;;;;;;;;10347599;28;20519;-28
2021/07/20 22:03:41;;;;;;;0.40;0.40;;;;;;;;;;10356407;28;20034;-28
2021/07/20 22:08:44;;;;;;;1.00;0.20;;;;;;;;;;10350334;28;20049;-28
2021/07/20 22:13:47;;;;;;;0.38;0.30;;;;;;;;;;10353466;28;20042;-28
2021/07/20 22:18:51;;;;;;;0.30;0.30;;;;;;;;;;10353661;28;20220;-28
2021/07/20 22:23:54;;;;;;;0.30;0.30;;;;;;;;;;10355135;28;20041;-28
2021/07/20 22:28:57;;;;;;;0.35;0.30;;;;;;;;;;10358294;28;20050;-28
2021/07/20 22:34:01;;;;;;;0.65;0.38;;;;;;;;;;10359424;28;20053;-28
2021/07/20 22:39:04;;;;;;;0.60;0.40;;;;;;;;;;10360642;28;20395;-28
2021/07/20 22:44:07;;;;;;;0.30;0.30;;;;;;;;;;10357061;28;20062;-28
2021/07/20 22:49:13;;;;;;;0.20;0.20;;;;;;;;;;10362225;28;20042;-28
2021/07/20 22:54:16;;;;;;;0.30;0.30;;;;;;;;;;10359737;28;20057;-28
2021/07/20 22:59:19;;;;;;;0.40;0.40;;;;;;;;;;10358432;28;20046;-30
2021/07/20 23:04:23;;;;;;;0.32;0.30;;;;;;;;;;10358332;28;20128;-26
2021/07/20 23:09:25;;;;;;;0.45;0.30;;;;;;;;;;10356545;28;20574;-26
2021/07/20 23:14:31;;;;;;;0.52;0.35;;;;;;;;;;10357298;28;20053;-27
2021/07/20 23:19:35;;;;;;;0.40;0.40;;;;;;;;;;10360025;28;20053;-26
2021/07/20 23:24:37;;;;;;;0.40;0.20;;;;;;;;;;10357857;28;20042;-27
2021/07/20 23:29:40;;;;;;;0.35;0.20;;;;;;;;;;10357274;28;20049;-26
2021/07/20 23:34:44;;;;;;;0.30;0.30;;;;;;;;;;10356586;28;20054;-26
2021/07/20 23:39:47;;;;;;;0.30;0.30;;;;;;;;;;10357786;28;20076;-26
2021/07/20 23:44:50;;;;;;;0.30;0.30;;;;;;;;;;10357714;28;20057;-28
2021/07/20 23:49:54;;;;;;;0.68;0.28;;;;;;;;;;10358257;28;20041;-26
2021/07/20 23:54:56;;;;;;;0.20;0.20;;;;;;;;;;10349285;28;20100;-28
2021/07/20 23:59:59;;;;;;;0.30;0.30;;;;;;;;;;10357119;28;20034;-26
